createdAt,value
2022-12-20T00:01:30.676Z,100914.13
2022-12-20T00:04:00.406Z,100903.03
2022-12-20T00:06:28.179Z,100903.03
2022-12-20T00:08:58.706Z,100899.63
2022-12-20T00:11:27.157Z,100898.78
2022-12-20T00:13:55.078Z,100900.50
2022-12-20T00:16:25.027Z,100903.03
2022-12-20T00:18:54.263Z,100893.69
2022-12-20T00:21:22.617Z,100895.41
2022-12-20T00:23:50.356Z,100883.47
2022-12-20T00:26:21.783Z,100880.91
2022-12-20T00:28:49.875Z,100881.75
2022-12-20T00:31:20.306Z,100881.75
2022-12-20T00:33:50.213Z,100873.25
2022-12-20T00:36:19.078Z,100862.25
2022-12-20T00:38:47.924Z,100863.16
2022-12-20T00:41:17.950Z,100859.81
2022-12-20T00:43:47.505Z,100858.97
2022-12-20T00:46:16.720Z,100866.66
2022-12-20T00:48:44.562Z,100864.94
2022-12-20T00:51:14.997Z,100868.34
2022-12-20T00:53:43.651Z,100875.22
2022-12-20T00:56:12.843Z,100877.78
2022-12-20T00:58:42.682Z,100873.50
2022-12-20T01:01:19.855Z,100869.22
2022-12-20T01:03:49.630Z,100869.28
2022-12-20T01:06:18.200Z,100873.53
2022-12-20T01:08:45.861Z,100870.94
2022-12-20T01:11:16.114Z,100874.31
2022-12-20T01:13:46.793Z,100876.84
2022-12-20T01:16:19.199Z,100880.28
2022-12-20T01:18:48.205Z,100872.63
2022-12-20T01:21:17.632Z,100875.19
2022-12-20T01:23:45.333Z,100865.78
2022-12-20T01:26:15.020Z,100864.94
2022-12-20T01:28:45.144Z,100858.97
2022-12-20T01:31:16.179Z,100859.88
2022-12-20T01:33:46.749Z,100858.13
2022-12-20T01:36:16.558Z,100849.59
2022-12-20T01:38:44.654Z,100848.75
2022-12-20T01:41:16.654Z,100846.19
2022-12-20T01:43:51.444Z,100847.88
2022-12-20T01:46:20.572Z,100843.63
2022-12-20T01:48:53.602Z,100844.50
2022-12-20T01:51:22.255Z,100840.19
2022-12-20T01:53:55.906Z,100835.09
2022-12-20T01:56:24.024Z,100832.53
2022-12-20T01:58:55.015Z,100824.81
2022-12-20T02:01:23.982Z,100825.69
2022-12-20T02:03:56.449Z,100816.28
2022-12-20T02:06:26.001Z,100811.13
2022-12-20T02:08:56.908Z,100806.84
2022-12-20T02:11:59.260Z,100813.69
2022-12-20T02:14:43.563Z,100811.97
2022-12-20T02:17:19.168Z,100810.28
2022-12-20T02:20:20.285Z,100810.28
2022-12-20T02:23:09.874Z,100799.16
2022-12-20T02:25:59.754Z,100790.66
2022-12-20T02:28:45.737Z,100787.22
2022-12-20T02:31:19.375Z,100789.78
2022-12-20T02:33:49.967Z,100787.25
2022-12-20T02:36:17.979Z,100781.28
2022-12-20T02:38:46.896Z,100782.97
2022-12-20T02:41:19.165Z,100774.44
2022-12-20T02:44:08.917Z,100772.72
2022-12-20T02:46:39.692Z,100764.22
2022-12-20T02:49:14.703Z,100768.47
2022-12-20T02:51:45.559Z,100760.78
2022-12-20T02:54:14.310Z,100760.78
2022-12-20T02:56:46.683Z,100762.50
2022-12-20T02:59:19.340Z,100756.50
2022-12-20T03:01:52.074Z,100762.47
2022-12-20T03:04:22.864Z,100761.63
2022-12-20T03:07:07.046Z,100753.06
2022-12-20T03:09:37.911Z,100748.81
2022-12-20T03:12:07.491Z,100746.22
2022-12-20T03:14:38.031Z,100752.22
2022-12-20T03:17:09.958Z,100748.78
2022-12-20T03:19:39.357Z,100742.81
2022-12-20T03:22:07.085Z,100741.13
2022-12-20T03:24:34.838Z,100740.25
2022-12-20T03:27:07.254Z,100738.53
2022-12-20T03:29:35.038Z,100741.13
2022-12-20T03:32:03.082Z,100744.53
2022-12-20T03:34:32.234Z,100731.72
2022-12-20T03:37:01.733Z,100734.28
2022-12-20T03:39:29.662Z,100724.88
2022-12-20T03:41:57.675Z,100735.97
2022-12-20T03:44:26.363Z,100736.84
2022-12-20T03:46:55.518Z,100735.13
2022-12-20T03:49:23.346Z,100735.16
2022-12-20T03:51:54.497Z,100738.56
2022-12-20T03:54:23.744Z,100735.13
2022-12-20T03:57:09.883Z,100733.44
2022-12-20T03:59:37.975Z,100742.81
2022-12-20T04:02:08.227Z,100742.84
2022-12-20T04:04:36.012Z,100746.25
2022-12-20T04:07:05.180Z,100753.09
2022-12-20T04:09:34.404Z,100751.38
2022-12-20T04:12:08.815Z,100747.97
2022-12-20T04:14:38.780Z,100743.69
2022-12-20T04:17:07.652Z,100742.81
2022-12-20T04:19:36.271Z,100739.38
2022-12-20T04:22:06.904Z,100737.69
2022-12-20T04:24:49.542Z,100728.25
2022-12-20T04:27:23.480Z,100718.84
2022-12-20T04:29:53.672Z,100711.97
2022-12-20T04:32:22.168Z,100710.28
2022-12-20T04:34:50.777Z,100705.16
2022-12-20T04:37:20.571Z,100709.41
2022-12-20T04:39:53.340Z,100709.38
2022-12-20T04:42:24.216Z,100702.53
2022-12-20T04:44:53.556Z,100694.84
2022-12-20T04:47:25.474Z,100692.25
2022-12-20T04:49:54.716Z,100704.22
2022-12-20T04:52:47.305Z,100703.25
2022-12-20T04:55:16.081Z,100710.97
2022-12-20T04:57:43.785Z,100699.81
2022-12-20T05:00:15.326Z,100697.28
2022-12-20T05:02:45.579Z,100689.56
2022-12-20T05:05:16.996Z,100688.72
2022-12-20T05:07:52.333Z,100685.28
2022-12-20T05:10:21.483Z,100699.00
2022-12-20T05:12:50.730Z,100699.84
2022-12-20T05:15:29.563Z,100697.25
2022-12-20T05:17:59.444Z,100702.38
2022-12-20T05:20:32.877Z,100698.13
2022-12-20T05:23:21.149Z,100695.56
2022-12-20T05:26:12.278Z,100687.03
2022-12-20T05:28:40.668Z,100693.03
2022-12-20T05:31:08.408Z,100695.56
2022-12-20T05:33:37.136Z,100681.84
2022-12-20T05:36:06.939Z,100691.28
2022-12-20T05:38:36.520Z,100692.97
2022-12-20T05:41:10.257Z,100699.03
2022-12-20T05:43:38.947Z,100700.72
2022-12-20T05:46:07.905Z,100686.22
2022-12-20T05:48:45.477Z,100687.09
2022-12-20T05:51:13.592Z,100679.41
2022-12-20T05:54:05.745Z,100680.31
2022-12-20T05:56:47.278Z,100682.88
2022-12-20T05:59:18.670Z,100683.75
2022-12-20T06:01:47.585Z,100686.31
2022-12-20T06:04:15.897Z,100675.16
2022-12-20T06:06:45.169Z,100669.13
2022-12-20T06:09:17.275Z,100663.09
2022-12-20T06:11:51.030Z,100651.09
2022-12-20T06:14:18.957Z,100657.94
2022-12-20T06:16:48.969Z,100655.44
2022-12-20T06:19:21.682Z,100659.69
2022-12-20T06:21:52.541Z,100649.41
2022-12-20T06:24:28.384Z,100646.00
2022-12-20T06:26:56.405Z,100633.19
2022-12-20T06:29:26.172Z,100625.50
2022-12-20T06:32:05.318Z,100626.38
2022-12-20T06:34:33.384Z,100633.22
2022-12-20T06:37:01.967Z,100637.50
2022-12-20T06:39:35.108Z,100639.97
2022-12-20T06:42:09.137Z,100645.94
2022-12-20T06:44:39.012Z,100637.34
2022-12-20T06:47:06.944Z,100646.84
2022-12-20T06:49:34.768Z,100646.84
2022-12-20T06:52:10.181Z,100653.69
2022-12-20T06:54:47.847Z,100657.09
2022-12-20T06:57:15.937Z,100658.84
2022-12-20T06:59:46.961Z,100661.41
2022-12-20T07:02:15.527Z,100665.69
2022-12-20T07:04:43.573Z,100652.75
2022-12-20T07:07:13.053Z,100657.84
2022-12-20T07:09:42.727Z,100655.28
2022-12-20T07:12:12.455Z,100639.88
2022-12-20T07:14:40.158Z,100633.09
2022-12-20T07:17:08.434Z,100637.41
2022-12-20T07:19:37.391Z,100633.13
2022-12-20T07:22:05.916Z,100636.53
2022-12-20T07:24:33.910Z,100632.28
2022-12-20T07:27:02.633Z,100634.81
2022-12-20T07:29:31.722Z,100636.53
2022-12-20T07:32:00.180Z,100633.91
2022-12-20T07:34:28.151Z,100633.03
2022-12-20T07:36:55.844Z,100633.03
2022-12-20T07:39:24.633Z,100630.47
2022-12-20T07:41:55.241Z,100633.03
2022-12-20T07:44:23.933Z,100638.16
2022-12-20T07:46:53.223Z,100635.53
2022-12-20T07:49:22.035Z,100632.94
2022-12-20T07:51:52.628Z,100635.53
2022-12-20T07:54:23.688Z,100632.06
2022-12-20T07:56:55.894Z,100621.81
2022-12-20T07:59:27.627Z,100616.69
2022-12-20T08:02:02.555Z,100609.88
2022-12-20T08:04:33.052Z,100604.72
2022-12-20T08:07:02.675Z,100596.13
2022-12-20T08:09:35.425Z,100603.91
2022-12-20T08:12:03.535Z,100603.88
2022-12-20T08:14:31.651Z,100600.41
2022-12-20T08:17:00.838Z,100597.84
2022-12-20T08:19:32.429Z,100611.53
2022-12-20T08:22:00.744Z,100608.13
2022-12-20T08:24:28.362Z,100611.50
2022-12-20T08:26:56.391Z,100599.53
2022-12-20T08:29:24.033Z,100595.25
2022-12-20T08:31:52.306Z,100593.47
2022-12-20T08:34:21.598Z,100593.53
2022-12-20T08:36:49.293Z,100594.31
2022-12-20T08:39:17.010Z,100590.75
2022-12-20T08:41:44.703Z,100583.03
2022-12-20T08:44:12.424Z,100582.22
2022-12-20T08:46:40.143Z,100586.63
2022-12-20T08:49:07.935Z,100590.09
2022-12-20T08:51:37.041Z,100584.16
2022-12-20T08:54:04.969Z,100575.56
2022-12-20T08:56:32.717Z,100572.09
2022-12-20T08:59:00.438Z,100573.81
2022-12-20T09:01:30.305Z,100575.47
2022-12-20T09:03:58.123Z,100580.59
2022-12-20T09:06:26.099Z,100575.44
2022-12-20T09:08:55.566Z,100559.91
2022-12-20T09:11:25.317Z,100555.59
2022-12-20T09:13:55.714Z,100564.91
2022-12-20T09:16:26.702Z,100582.00
2022-12-20T09:19:04.332Z,100595.59
2022-12-20T09:21:33.119Z,100586.16
2022-12-20T09:24:02.205Z,100598.03
2022-12-20T09:26:30.629Z,100588.56
2022-12-20T09:28:59.285Z,100581.72
2022-12-20T09:31:27.751Z,100586.91
2022-12-20T09:33:57.879Z,100581.75
2022-12-20T09:36:27.884Z,100570.56
2022-12-20T09:38:56.431Z,100580.00
2022-12-20T09:41:32.772Z,100569.72
2022-12-20T09:44:04.765Z,100580.16
2022-12-20T09:46:33.161Z,100582.81
2022-12-20T09:49:00.991Z,100574.16
2022-12-20T09:51:40.465Z,100562.88
2022-12-20T09:54:22.402Z,100550.78
2022-12-20T09:57:01.241Z,100553.28
2022-12-20T09:59:34.179Z,100547.13
2022-12-20T10:02:44.050Z,100549.66
2022-12-20T10:04:58.585Z,100547.03
2022-12-20T10:07:36.794Z,100551.28
2022-12-20T10:10:25.653Z,100554.00
2022-12-20T10:13:07.278Z,100549.66
2022-12-20T10:15:39.629Z,100547.84
2022-12-20T10:18:23.178Z,100547.78
2022-12-20T10:21:00.796Z,100550.28
2022-12-20T10:23:34.723Z,100560.50
2022-12-20T10:26:02.393Z,100553.59
2022-12-20T10:28:35.509Z,100545.06
2022-12-20T10:31:07.048Z,100540.94
2022-12-20T10:33:35.491Z,100548.00
2022-12-20T10:36:21.667Z,100545.66
2022-12-20T10:38:51.613Z,100541.50
2022-12-20T10:41:22.636Z,100546.59
2022-12-20T10:43:56.229Z,100547.47
2022-12-20T10:46:25.238Z,100545.63
2022-12-20T10:48:52.943Z,100533.41
2022-12-20T10:51:22.704Z,100524.78
2022-12-20T10:53:57.145Z,100509.34
2022-12-20T10:56:28.553Z,100506.78
2022-12-20T10:59:02.965Z,100497.38
2022-12-20T11:01:34.405Z,100490.28
2022-12-20T11:04:04.395Z,100493.63
2022-12-20T11:06:43.430Z,100497.81
2022-12-20T11:09:23.261Z,100492.69
2022-12-20T11:12:06.195Z,100491.06
2022-12-20T11:14:39.623Z,100494.47
2022-12-20T11:17:23.332Z,100491.88
2022-12-20T11:20:14.451Z,100491.75
2022-12-20T11:22:52.462Z,100483.78
2022-12-20T11:25:32.773Z,100477.53
2022-12-20T11:28:17.423Z,100468.06
2022-12-20T11:30:55.171Z,100470.72
2022-12-20T11:33:53.934Z,100468.25
2022-12-20T11:36:34.083Z,100464.78
2022-12-20T11:39:11.881Z,100469.88
2022-12-20T11:41:47.618Z,100468.94
2022-12-20T11:44:27.777Z,100460.25
2022-12-20T11:47:25.276Z,100452.56
2022-12-20T11:50:13.102Z,100442.31
2022-12-20T11:52:48.516Z,100429.47
2022-12-20T11:55:21.709Z,100427.84
2022-12-20T11:58:28.125Z,100421.91
2022-12-20T12:00:58.785Z,100412.50
2022-12-20T12:03:33.742Z,100413.31
2022-12-20T12:06:06.419Z,100411.47
2022-12-20T12:08:43.539Z,100407.13
2022-12-20T12:11:55.567Z,100396.81
2022-12-20T12:14:08.192Z,100410.84
2022-12-20T12:16:41.328Z,100411.69
2022-12-20T12:19:13.277Z,100409.03
2022-12-20T12:21:45.494Z,100410.84
2022-12-20T12:24:24.307Z,100413.53
2022-12-20T12:26:53.396Z,100418.81
2022-12-20T12:29:22.056Z,100406.66
2022-12-20T12:31:55.690Z,100398.88
2022-12-20T12:34:40.035Z,100389.44
2022-12-20T12:37:40.149Z,100386.09
2022-12-20T12:40:46.079Z,100379.31
2022-12-20T12:43:47.804Z,100360.31
2022-12-20T12:46:19.774Z,100367.13
2022-12-20T12:48:55.619Z,100361.81
2022-12-20T12:51:31.430Z,100358.94
2022-12-20T12:54:18.383Z,100357.88
2022-12-20T12:56:47.426Z,100348.19
2022-12-20T12:59:51.714Z,100338.44
2022-12-20T13:02:37.405Z,100335.50
2022-12-20T13:05:34.395Z,100330.03
2022-12-20T13:08:04.610Z,100332.38
2022-12-20T13:11:00.323Z,100343.38
2022-12-20T13:13:28.334Z,100344.19
2022-12-20T13:16:11.101Z,100340.66
2022-12-20T13:18:38.879Z,100330.28
2022-12-20T13:21:23.141Z,100320.84
2022-12-20T13:24:42.230Z,100325.19
2022-12-20T13:27:24.894Z,100329.59
2022-12-20T13:29:57.064Z,100339.97
2022-12-20T13:32:55.772Z,100335.72
2022-12-20T13:35:33.046Z,100333.03
2022-12-20T13:38:04.636Z,100337.44
2022-12-20T13:40:39.432Z,100335.09
2022-12-20T13:43:13.190Z,100331.69
2022-12-20T13:45:47.160Z,100332.72
2022-12-20T13:48:19.696Z,100330.22
2022-12-20T13:50:50.948Z,100329.44
2022-12-20T13:53:20.738Z,100335.56
2022-12-20T13:55:50.683Z,100336.47
2022-12-20T13:58:21.005Z,100328.75
2022-12-20T14:00:50.827Z,100318.44
2022-12-20T14:03:23.786Z,100309.00
2022-12-20T14:05:57.471Z,100315.13
2022-12-20T14:08:29.492Z,100311.63
2022-12-20T14:11:08.947Z,100315.84
2022-12-20T14:13:36.707Z,100310.69
2022-12-20T14:16:09.338Z,100311.50
2022-12-20T14:18:37.085Z,100312.13
2022-12-20T14:21:06.539Z,100313.59
2022-12-20T14:23:39.221Z,100297.88
2022-12-20T14:26:12.922Z,100288.38
2022-12-20T14:28:44.304Z,100297.78
2022-12-20T14:31:25.376Z,100291.00
2022-12-20T14:34:01.735Z,100291.78
2022-12-20T14:36:30.565Z,100299.66
2022-12-20T14:38:58.773Z,100305.88
2022-12-20T14:41:37.208Z,100307.06
2022-12-20T14:44:16.681Z,100305.53
2022-12-20T14:46:49.813Z,100297.72
2022-12-20T14:49:25.670Z,100282.56
2022-12-20T14:52:06.510Z,100276.94
2022-12-20T14:55:07.305Z,100284.91
2022-12-20T14:57:30.472Z,100284.72
2022-12-20T15:00:01.433Z,100286.22
2022-12-20T15:02:36.819Z,100281.06
2022-12-20T15:05:23.790Z,100283.00
2022-12-20T15:07:51.497Z,100275.88
2022-12-20T15:10:19.506Z,100265.25
2022-12-20T15:12:48.537Z,100271.88
2022-12-20T15:15:29.172Z,100270.88
2022-12-20T15:17:57.648Z,100277.53
2022-12-20T15:20:25.326Z,100270.63
2022-12-20T15:22:53.175Z,100266.25
2022-12-20T15:25:21.339Z,100265.47
2022-12-20T15:27:50.651Z,100260.22
2022-12-20T15:30:19.088Z,100267.09
2022-12-20T15:32:55.293Z,100264.78
2022-12-20T15:35:24.841Z,100257.75
2022-12-20T15:37:53.020Z,100260.13
2022-12-20T15:40:20.903Z,100252.88
2022-12-20T15:42:50.009Z,100250.38
2022-12-20T15:45:17.747Z,100258.09
2022-12-20T15:47:45.567Z,100257.47
2022-12-20T15:50:13.754Z,100252.38
2022-12-20T15:52:41.857Z,100245.69
2022-12-20T15:55:12.035Z,100247.59
2022-12-20T15:57:39.638Z,100255.44
2022-12-20T16:00:11.279Z,100248.50
2022-12-20T16:02:41.855Z,100255.50
2022-12-20T16:05:13.757Z,100253.81
2022-12-20T16:07:41.528Z,100259.06
2022-12-20T16:10:13.761Z,100260.00
2022-12-20T16:12:42.018Z,100254.78
2022-12-20T16:15:21.357Z,100261.63
2022-12-20T16:17:49.116Z,100264.81
2022-12-20T16:20:17.012Z,100267.31
2022-12-20T16:22:44.807Z,100266.94
2022-12-20T16:25:24.979Z,100256.00
2022-12-20T16:27:52.811Z,100257.81
2022-12-20T16:30:22.469Z,100262.06
2022-12-20T16:32:51.178Z,100268.97
2022-12-20T16:35:25.867Z,100264.63
2022-12-20T16:37:54.355Z,100259.53
2022-12-20T16:40:23.277Z,100253.47
2022-12-20T16:42:50.981Z,100251.88
2022-12-20T16:45:21.120Z,100248.34
2022-12-20T16:47:50.410Z,100254.38
2022-12-20T16:50:20.258Z,100248.41
2022-12-20T16:52:48.002Z,100249.16
2022-12-20T16:55:19.577Z,100247.50
2022-12-20T16:57:47.389Z,100249.16
2022-12-20T17:00:19.335Z,100247.63
2022-12-20T17:02:47.264Z,100242.53
2022-12-20T17:05:29.249Z,100239.22
2022-12-20T17:07:57.389Z,100234.91
2022-12-20T17:10:26.933Z,100231.53
2022-12-20T17:12:54.741Z,100229.75
2022-12-20T17:15:25.487Z,100228.78
2022-12-20T17:17:54.095Z,100231.38
2022-12-20T17:20:23.953Z,100234.72
2022-12-20T17:25:40.356Z,100225.34
2022-12-20T17:28:07.974Z,100222.72
2022-12-20T17:30:35.971Z,100213.25
2022-12-20T17:33:04.157Z,100218.31
2022-12-20T17:35:33.956Z,100224.34
2022-12-20T17:38:03.061Z,100220.88
2022-12-20T17:40:31.349Z,100214.00
2022-12-20T17:42:59.122Z,100214.84
2022-12-20T17:45:30.660Z,100226.03
2022-12-20T17:47:59.050Z,100228.69
2022-12-20T17:50:27.676Z,100237.03
2022-12-20T17:52:55.581Z,100224.91
2022-12-20T17:55:27.091Z,100223.06
2022-12-20T17:57:56.679Z,100224.50
2022-12-20T18:00:30.751Z,100220.31
2022-12-20T18:03:04.761Z,100219.56
2022-12-20T18:05:32.497Z,100216.31
2022-12-20T18:08:00.347Z,100220.69
2022-12-20T18:10:29.351Z,100212.28
2022-12-20T18:12:57.121Z,100204.22
2022-12-20T18:15:25.086Z,100209.72
2022-12-20T18:17:52.834Z,100206.25
2022-12-20T18:20:20.676Z,100199.50
2022-12-20T18:22:48.394Z,100194.41
2022-12-20T18:25:18.212Z,100197.75
2022-12-20T18:27:47.675Z,100197.88
2022-12-20T18:30:15.701Z,100204.13
2022-12-20T18:32:43.632Z,100199.84
2022-12-20T18:35:11.923Z,100206.81
2022-12-20T18:37:39.674Z,100207.56
2022-12-20T18:40:09.147Z,100204.16
2022-12-20T18:42:36.891Z,100196.56
2022-12-20T18:45:07.087Z,100194.94
2022-12-20T18:47:35.675Z,100203.53
2022-12-20T18:50:03.476Z,100212.81
2022-12-20T18:55:40.350Z,100201.09
2022-12-20T18:58:08.049Z,100196.16
2022-12-20T19:00:37.156Z,100196.50
2022-12-20T19:03:05.176Z,100201.84
2022-12-20T19:05:33.789Z,100193.41
2022-12-20T19:08:01.684Z,100195.22
2022-12-20T19:10:33.096Z,100202.09
2022-12-20T19:13:05.751Z,100193.69
2022-12-20T19:15:34.071Z,100199.78
2022-12-20T19:18:03.251Z,100192.78
2022-12-20T19:20:31.019Z,100197.03
2022-12-20T19:22:58.748Z,100192.63
2022-12-20T19:25:26.660Z,100184.72
2022-12-20T19:27:54.650Z,100185.41
2022-12-20T19:30:22.686Z,100195.72
2022-12-20T19:32:50.492Z,100195.75
2022-12-20T19:35:53.661Z,100200.78
2022-12-20T19:38:08.112Z,100204.31
2022-12-20T19:40:35.885Z,100201.47
2022-12-20T19:43:03.898Z,100200.78
2022-12-20T19:45:31.556Z,100201.72
2022-12-20T19:47:59.261Z,100202.41
2022-12-20T19:50:28.487Z,100203.28
2022-12-20T19:52:56.391Z,100201.66
2022-12-20T19:55:24.608Z,100203.53
2022-12-20T19:57:52.322Z,100204.44
2022-12-20T20:00:20.601Z,100202.00
2022-12-20T20:02:48.597Z,100207.34
2022-12-20T20:05:16.589Z,100194.56
2022-12-20T20:07:46.296Z,100206.66
2022-12-20T20:10:14.234Z,100201.53
2022-12-20T20:12:41.984Z,100199.81
2022-12-20T20:15:10.402Z,100200.56
2022-12-20T20:17:38.378Z,100210.75
2022-12-20T20:20:07.858Z,100197.78
2022-12-20T20:22:35.651Z,100207.25
2022-12-20T20:25:05.416Z,100207.25
2022-12-20T20:27:33.180Z,100213.34
2022-12-20T20:30:01.315Z,100201.41
2022-12-20T20:32:29.130Z,100198.75
2022-12-20T20:34:56.850Z,100205.53
2022-12-20T20:37:25.071Z,100205.44
2022-12-20T20:39:52.770Z,100204.63
2022-12-20T20:42:23.629Z,100196.09
2022-12-20T20:44:51.675Z,100191.00
2022-12-20T20:47:20.724Z,100187.59
2022-12-20T20:49:48.649Z,100189.19
2022-12-20T20:52:16.490Z,100183.88
2022-12-20T20:54:44.257Z,100181.31
2022-12-20T20:57:12.066Z,100181.38
2022-12-20T20:59:41.292Z,100189.22
2022-12-20T21:02:13.306Z,100175.56
2022-12-20T21:04:41.418Z,100175.63
2022-12-20T21:07:09.862Z,100179.09
2022-12-20T21:09:37.736Z,100180.75
2022-12-20T21:12:06.018Z,100176.50
2022-12-20T21:15:10.750Z,100168.81
2022-12-20T21:17:23.074Z,100167.94
2022-12-20T21:19:51.106Z,100155.91
2022-12-20T21:22:19.469Z,100153.41
2022-12-20T21:24:47.587Z,100145.72
2022-12-20T21:27:15.408Z,100135.38
2022-12-20T21:29:43.130Z,100136.22
2022-12-20T21:32:11.151Z,100127.69
2022-12-20T21:34:40.430Z,100123.19
2022-12-20T21:37:08.553Z,100118.94
2022-12-20T21:39:36.846Z,100125.78
2022-12-20T21:42:04.680Z,100119.53
2022-12-20T21:44:32.367Z,100120.50
2022-12-20T21:47:00.417Z,100127.28
2022-12-20T21:49:28.312Z,100117.84
2022-12-20T21:51:58.196Z,100112.66
2022-12-20T21:54:26.012Z,100112.59
2022-12-20T21:56:53.680Z,100105.59
2022-12-20T21:59:21.662Z,100108.97
2022-12-20T22:01:49.816Z,100102.97
2022-12-20T22:04:19.474Z,100097.72
2022-12-20T22:06:47.233Z,100089.00
2022-12-20T22:09:17.252Z,100087.19
2022-12-20T22:11:47.324Z,100079.41
2022-12-20T22:14:15.723Z,100079.44
2022-12-20T22:16:44.339Z,100095.03
2022-12-20T22:19:14.752Z,100089.78
2022-12-20T22:21:42.459Z,100094.06
2022-12-20T22:24:11.036Z,100093.00
2022-12-20T22:26:41.507Z,100089.13
2022-12-20T22:29:09.812Z,100080.22
2022-12-20T22:31:38.429Z,100085.97
2022-12-20T22:34:06.365Z,100085.84
2022-12-20T22:36:34.254Z,100083.13
2022-12-20T22:39:01.932Z,100075.38
2022-12-20T22:41:32.355Z,100084.28
2022-12-20T22:44:01.969Z,100078.28
2022-12-20T22:46:30.703Z,100074.72
2022-12-20T22:48:58.854Z,100078.09
2022-12-20T22:51:27.942Z,100075.53
2022-12-20T22:53:57.704Z,100070.47
2022-12-20T22:56:25.560Z,100070.44
2022-12-20T22:58:53.534Z,100058.81
2022-12-20T23:01:22.819Z,100064.59
2022-12-20T23:03:51.052Z,100062.91
2022-12-20T23:06:20.808Z,100061.13
2022-12-20T23:08:49.065Z,100061.81
2022-12-20T23:11:36.974Z,100055.72
2022-12-20T23:14:23.231Z,100070.13
2022-12-20T23:16:52.787Z,100059.81
2022-12-20T23:19:20.728Z,100063.19
2022-12-20T23:22:05.874Z,100067.78
2022-12-20T23:24:33.567Z,100065.84
2022-12-20T23:27:02.417Z,100060.69
2022-12-20T23:29:30.972Z,100058.16
2022-12-20T23:32:00.193Z,100060.63
2022-12-20T23:34:28.223Z,100063.34
2022-12-20T23:36:56.277Z,100058.03
2022-12-20T23:39:24.395Z,100052.66
2022-12-20T23:41:52.045Z,100057.59
2022-12-20T23:44:19.791Z,100061.88
2022-12-20T23:46:47.796Z,100055.38
2022-12-20T23:49:17.297Z,100051.34
2022-12-20T23:51:45.053Z,100048.53
2022-12-20T23:54:13.363Z,100046.88
2022-12-20T23:56:41.057Z,100039.09
2022-12-20T23:59:09.058Z,100041.47
